sensor_id;sensor_type;location;lat;lon;timestamp;pressure;altitude;pressure_sealevel;temperature;humidity
10712;BME280;5407;51.234;6.804;2022-12-18T00:02:19;102301.69;;;21.54;31.79
10712;BME280;5407;51.234;6.804;2022-12-18T00:04:47;102313.88;;;21.57;31.85
10712;BME280;5407;51.234;6.804;2022-12-18T00:07:14;102317.44;;;21.57;31.90
10712;BME280;5407;51.234;6.804;2022-12-18T00:09:41;102315.81;;;21.56;31.74
10712;BME280;5407;51.234;6.804;2022-12-18T00:12:08;102319.78;;;21.59;31.71
10712;BME280;5407;51.234;6.804;2022-12-18T00:14:36;102316.31;;;21.62;31.74
10712;BME280;5407;51.234;6.804;2022-12-18T00:17:03;102312.78;;;21.61;31.83
10712;BME280;5407;51.234;6.804;2022-12-18T00:19:30;102319.88;;;21.62;31.68
10712;BME280;5407;51.234;6.804;2022-12-18T00:21:58;102319.06;;;21.62;31.46
10712;BME280;5407;51.234;6.804;2022-12-18T00:24:24;102320.22;;;21.61;31.61
10712;BME280;5407;51.234;6.804;2022-12-18T00:26:51;102316.69;;;21.60;31.58
10712;BME280;5407;51.234;6.804;2022-12-18T00:29:19;102322.94;;;21.57;31.49
10712;BME280;5407;51.234;6.804;2022-12-18T00:31:48;102311.94;;;21.57;31.59
10712;BME280;5407;51.234;6.804;2022-12-18T00:34:15;102320.53;;;21.56;31.49
10712;BME280;5407;51.234;6.804;2022-12-18T00:36:42;102325.22;;;21.55;31.44
10712;BME280;5407;51.234;6.804;2022-12-18T00:39:11;102324.47;;;21.55;31.37
10712;BME280;5407;51.234;6.804;2022-12-18T00:41:38;102329.16;;;21.54;31.17
10712;BME280;5407;51.234;6.804;2022-12-18T00:44:24;102319.72;;;21.55;31.35
10712;BME280;5407;51.234;6.804;2022-12-18T00:46:53;102314.25;;;21.55;31.22
10712;BME280;5407;51.234;6.804;2022-12-18T00:49:20;102309.19;;;21.57;31.30
10712;BME280;5407;51.234;6.804;2022-12-18T00:51:47;102303.25;;;21.55;31.23
10712;BME280;5407;51.234;6.804;2022-12-18T00:54:15;102309.91;;;21.54;31.29
10712;BME280;5407;51.234;6.804;2022-12-18T00:56:42;102310.72;;;21.55;31.30
10712;BME280;5407;51.234;6.804;2022-12-18T00:59:09;102313.47;;;21.55;31.18
10712;BME280;5407;51.234;6.804;2022-12-18T01:01:38;102310.31;;;21.53;31.22
10712;BME280;5407;51.234;6.804;2022-12-18T01:04:06;102318.16;;;21.54;31.15
10712;BME280;5407;51.234;6.804;2022-12-18T01:06:35;102311.09;;;21.53;31.22
10712;BME280;5407;51.234;6.804;2022-12-18T01:09:02;102307.16;;;21.54;31.20
10712;BME280;5407;51.234;6.804;2022-12-18T01:11:29;102301.69;;;21.54;31.23
10712;BME280;5407;51.234;6.804;2022-12-18T01:13:56;102302.84;;;21.53;31.28
10712;BME280;5407;51.234;6.804;2022-12-18T01:16:23;102309.16;;;21.54;31.47
10712;BME280;5407;51.234;6.804;2022-12-18T01:18:52;102310.31;;;21.53;31.16
10712;BME280;5407;51.234;6.804;2022-12-18T01:21:21;102320.50;;;21.52;31.06
10712;BME280;5407;51.234;6.804;2022-12-18T01:23:51;102314.22;;;21.52;31.28
10712;BME280;5407;51.234;6.804;2022-12-18T01:26:18;102309.50;;;21.52;31.42
10712;BME280;5407;51.234;6.804;2022-12-18T01:28:46;102304.00;;;21.52;31.38
10712;BME280;5407;51.234;6.804;2022-12-18T01:31:16;102305.59;;;21.53;31.25
10712;BME280;5407;51.234;6.804;2022-12-18T01:33:44;102311.50;;;21.55;31.13
10712;BME280;5407;51.234;6.804;2022-12-18T01:36:17;102301.31;;;21.56;31.34
10712;BME280;5407;51.234;6.804;2022-12-18T01:38:46;102293.06;;;21.56;31.28
10712;BME280;5407;51.234;6.804;2022-12-18T01:41:15;102300.50;;;21.55;31.35
10712;BME280;5407;51.234;6.804;2022-12-18T01:43:46;102308.75;;;21.55;31.44
10712;BME280;5407;51.234;6.804;2022-12-18T01:46:13;102296.59;;;21.56;31.26
10712;BME280;5407;51.234;6.804;2022-12-18T01:48:41;102295.47;;;21.57;31.42
10712;BME280;5407;51.234;6.804;2022-12-18T01:51:10;102300.16;;;21.57;31.39
10712;BME280;5407;51.234;6.804;2022-12-18T01:53:39;102298.22;;;21.57;31.31
10712;BME280;5407;51.234;6.804;2022-12-18T01:56:12;102301.38;;;21.59;31.33
10712;BME280;5407;51.234;6.804;2022-12-18T01:58:46;102312.34;;;21.59;31.42
10712;BME280;5407;51.234;6.804;2022-12-18T02:01:15;102312.34;;;21.59;31.55
10712;BME280;5407;51.234;6.804;2022-12-18T02:03:43;102308.81;;;21.59;31.47
10712;BME280;5407;51.234;6.804;2022-12-18T02:06:14;102309.59;;;21.59;31.15
10712;BME280;5407;51.234;6.804;2022-12-18T02:08:50;102312.34;;;21.59;31.32
10712;BME280;5407;51.234;6.804;2022-12-18T02:11:25;102312.78;;;21.61;31.36
10712;BME280;5407;51.234;6.804;2022-12-18T02:14:02;102305.69;;;21.60;31.22
10712;BME280;5407;51.234;6.804;2022-12-18T02:16:39;102300.63;;;21.62;31.06
10712;BME280;5407;51.234;6.804;2022-12-18T02:19:22;102297.50;;;21.64;31.14
10712;BME280;5407;51.234;6.804;2022-12-18T02:21:55;102309.66;;;21.63;31.20
10712;BME280;5407;51.234;6.804;2022-12-18T02:24:33;102308.88;;;21.62;30.99
10712;BME280;5407;51.234;6.804;2022-12-18T02:27:04;102293.56;;;21.61;31.00
10712;BME280;5407;51.234;6.804;2022-12-18T02:29:36;102300.63;;;21.62;31.02
10712;BME280;5407;51.234;6.804;2022-12-18T02:32:08;102294.34;;;21.62;31.04
10712;BME280;5407;51.234;6.804;2022-12-18T02:34:38;102290.81;;;21.61;31.12
10712;BME280;5407;51.234;6.804;2022-12-18T02:37:12;102285.34;;;21.61;30.91
10712;BME280;5407;51.234;6.804;2022-12-18T02:39:43;102277.41;;;21.60;31.10
10712;BME280;5407;51.234;6.804;2022-12-18T02:42:14;102274.25;;;21.58;31.04
10712;BME280;5407;51.234;6.804;2022-12-18T02:44:42;102275.06;;;21.58;31.17
10712;BME280;5407;51.234;6.804;2022-12-18T02:47:10;102287.28;;;21.61;31.06
10712;BME280;5407;51.234;6.804;2022-12-18T02:49:44;102296.31;;;21.61;31.05
10712;BME280;5407;51.234;6.804;2022-12-18T02:52:23;102296.31;;;21.61;30.94
10712;BME280;5407;51.234;6.804;2022-12-18T02:54:57;102295.56;;;21.64;31.03
10712;BME280;5407;51.234;6.804;2022-12-18T02:57:34;102293.59;;;21.65;31.02
10712;BME280;5407;51.234;6.804;2022-12-18T03:00:07;102284.56;;;21.64;30.92
10712;BME280;5407;51.234;6.804;2022-12-18T03:02:40;102284.94;;;21.63;31.02
10712;BME280;5407;51.234;6.804;2022-12-18T03:05:14;102283.34;;;21.62;30.96
10712;BME280;5407;51.234;6.804;2022-12-18T03:07:46;102277.41;;;21.60;30.98
10712;BME280;5407;51.234;6.804;2022-12-18T03:10:16;102289.22;;;21.60;31.04
10712;BME280;5407;51.234;6.804;2022-12-18T03:12:51;102285.34;;;21.61;31.06
10712;BME280;5407;51.234;6.804;2022-12-18T03:15:25;102283.34;;;21.62;31.07
10712;BME280;5407;51.234;6.804;2022-12-18T03:18:04;102285.34;;;21.61;30.98
10712;BME280;5407;51.234;6.804;2022-12-18T03:20:34;102275.91;;;21.62;31.08
10712;BME280;5407;51.234;6.804;2022-12-18T03:23:06;102280.59;;;21.62;30.98
10712;BME280;5407;51.234;6.804;2022-12-18T03:25:38;102271.59;;;21.61;30.98
10712;BME280;5407;51.234;6.804;2022-12-18T03:28:10;102275.47;;;21.60;31.12
10712;BME280;5407;51.234;6.804;2022-12-18T03:30:40;102266.81;;;21.58;30.93
10712;BME280;5407;51.234;6.804;2022-12-18T03:33:10;102268.78;;;21.58;31.04
10712;BME280;5407;51.234;6.804;2022-12-18T03:35:43;102268.00;;;21.57;31.19
10712;BME280;5407;51.234;6.804;2022-12-18T03:38:12;102280.94;;;21.57;31.11
10712;BME280;5407;51.234;6.804;2022-12-18T03:40:51;102273.84;;;21.56;31.10
10712;BME280;5407;51.234;6.804;2022-12-18T03:43:34;102278.53;;;21.55;31.02
10712;BME280;5407;51.234;6.804;2022-12-18T03:46:05;102265.59;;;21.56;30.98
10712;BME280;5407;51.234;6.804;2022-12-18T03:48:38;102270.28;;;21.55;31.11
10712;BME280;5407;51.234;6.804;2022-12-18T03:51:14;102275.78;;;21.55;30.95
10712;BME280;5407;51.234;6.804;2022-12-18T03:53:49;102265.97;;;21.54;30.90
10712;BME280;5407;51.234;6.804;2022-12-18T03:56:22;102264.41;;;21.53;31.15
10712;BME280;5407;51.234;6.804;2022-12-18T03:58:54;102258.47;;;21.48;31.26
10712;BME280;5407;51.234;6.804;2022-12-18T04:01:31;102268.66;;;21.47;31.21
10712;BME280;5407;51.234;6.804;2022-12-18T04:04:03;102260.41;;;21.44;31.25
10712;BME280;5407;51.234;6.804;2022-12-18T04:06:34;102256.44;;;21.41;31.51
10712;BME280;5407;51.234;6.804;2022-12-18T04:09:02;102256.03;;;21.39;31.59
10712;BME280;5407;51.234;6.804;2022-12-18T04:11:34;102243.03;;;21.36;31.46
10712;BME280;5407;51.234;6.804;2022-12-18T04:14:04;102252.44;;;21.35;31.56
10712;BME280;5407;51.234;6.804;2022-12-18T04:16:31;102248.13;;;21.34;31.61
10712;BME280;5407;51.234;6.804;2022-12-18T04:19:01;102246.53;;;21.33;31.65
10712;BME280;5407;51.234;6.804;2022-12-18T04:21:32;102253.19;;;21.32;31.68
10712;BME280;5407;51.234;6.804;2022-12-18T04:23:59;102250.06;;;21.34;31.81
10712;BME280;5407;51.234;6.804;2022-12-18T04:26:27;102245.78;;;21.36;31.37
10712;BME280;5407;51.234;6.804;2022-12-18T04:29:22;102244.28;;;21.42;31.07
10712;BME280;5407;51.234;6.804;2022-12-18T04:31:49;102246.63;;;21.40;31.35
10712;BME280;5407;51.234;6.804;2022-12-18T04:34:16;102250.94;;;21.41;31.35
10712;BME280;5407;51.234;6.804;2022-12-18T04:36:48;102249.78;;;21.42;31.31
10712;BME280;5407;51.234;6.804;2022-12-18T04:39:16;102250.59;;;21.46;31.08
10712;BME280;5407;51.234;6.804;2022-12-18T04:41:43;102241.59;;;21.49;31.26
10712;BME280;5407;51.234;6.804;2022-12-18T04:44:11;102242.44;;;21.53;31.10
10712;BME280;5407;51.234;6.804;2022-12-18T04:46:39;102246.75;;;21.54;31.12
10712;BME280;5407;51.234;6.804;2022-12-18T04:49:06;102238.16;;;21.56;31.21
10712;BME280;5407;51.234;6.804;2022-12-18T04:51:35;102241.31;;;21.58;31.16
10712;BME280;5407;51.234;6.804;2022-12-18T04:54:02;102236.63;;;21.58;31.07
10712;BME280;5407;51.234;6.804;2022-12-18T04:56:31;102233.47;;;21.60;31.03
10712;BME280;5407;51.234;6.804;2022-12-18T04:58:58;102226.84;;;21.61;31.00
10712;BME280;5407;51.234;6.804;2022-12-18T05:01:25;102226.47;;;21.62;31.05
10712;BME280;5407;51.234;6.804;2022-12-18T05:03:53;102226.47;;;21.62;31.07
10712;BME280;5407;51.234;6.804;2022-12-18T05:06:20;102215.50;;;21.62;31.01
10712;BME280;5407;51.234;6.804;2022-12-18T05:08:47;102212.75;;;21.62;30.94
10712;BME280;5407;51.234;6.804;2022-12-18T05:11:15;102212.31;;;21.60;30.99
10712;BME280;5407;51.234;6.804;2022-12-18T05:13:42;102221.72;;;21.59;30.94
10712;BME280;5407;51.234;6.804;2022-12-18T05:16:09;102224.81;;;21.58;31.00
10712;BME280;5407;51.234;6.804;2022-12-18T05:18:36;102221.66;;;21.56;31.16
10712;BME280;5407;51.234;6.804;2022-12-18T05:21:05;102227.53;;;21.54;31.18
10712;BME280;5407;51.234;6.804;2022-12-18T05:23:32;102219.28;;;21.54;31.08
10712;BME280;5407;51.234;6.804;2022-12-18T05:26:04;102216.13;;;21.52;31.19
10712;BME280;5407;51.234;6.804;2022-12-18T05:28:32;102214.97;;;21.53;31.11
10712;BME280;5407;51.234;6.804;2022-12-18T05:31:01;102217.72;;;21.53;31.13
10712;BME280;5407;51.234;6.804;2022-12-18T05:33:29;102217.28;;;21.51;31.09
10712;BME280;5407;51.234;6.804;2022-12-18T05:35:59;102224.75;;;21.51;31.14
10712;BME280;5407;51.234;6.804;2022-12-18T05:38:28;102231.03;;;21.51;31.15
10712;BME280;5407;51.234;6.804;2022-12-18T05:40:56;102234.16;;;21.50;31.04
10712;BME280;5407;51.234;6.804;2022-12-18T05:43:24;102240.03;;;21.48;31.14
10712;BME280;5407;51.234;6.804;2022-12-18T05:45:52;102235.69;;;21.47;31.16
10712;BME280;5407;51.234;6.804;2022-12-18T05:48:19;102242.78;;;21.48;31.11
10712;BME280;5407;51.234;6.804;2022-12-18T05:50:47;102238.84;;;21.49;30.94
10712;BME280;5407;51.234;6.804;2022-12-18T05:53:17;102247.50;;;21.48;30.89
10712;BME280;5407;51.234;6.804;2022-12-18T05:55:46;102254.56;;;21.49;30.96
10712;BME280;5407;51.234;6.804;2022-12-18T05:58:14;102254.91;;;21.47;30.99
10712;BME280;5407;51.234;6.804;2022-12-18T06:00:44;102263.97;;;21.48;31.05
10712;BME280;5407;51.234;6.804;2022-12-18T06:03:12;102263.97;;;21.48;30.85
10712;BME280;5407;51.234;6.804;2022-12-18T06:05:41;102274.16;;;21.47;30.91
10712;BME280;5407;51.234;6.804;2022-12-18T06:08:09;102273.38;;;21.47;31.05
10712;BME280;5407;51.234;6.804;2022-12-18T06:10:37;102279.22;;;21.45;30.86
10712;BME280;5407;51.234;6.804;2022-12-18T06:13:05;102280.38;;;21.44;31.01
10712;BME280;5407;51.234;6.804;2022-12-18T06:15:35;102287.03;;;21.43;30.98
10712;BME280;5407;51.234;6.804;2022-12-18T06:18:03;102289.38;;;21.41;30.88
10712;BME280;5407;51.234;6.804;2022-12-18T06:20:30;102280.38;;;21.41;30.99
10712;BME280;5407;51.234;6.804;2022-12-18T06:22:56;102284.28;;;21.40;30.95
10712;BME280;5407;51.234;6.804;2022-12-18T06:25:23;102282.66;;;21.35;31.20
10712;BME280;5407;51.234;6.804;2022-12-18T06:27:50;102285.34;;;21.32;31.41
10712;BME280;5407;51.234;6.804;2022-12-18T06:30:18;102279.81;;;21.28;31.43
10712;BME280;5407;51.234;6.804;2022-12-18T06:32:45;102270.78;;;21.28;31.27
10712;BME280;5407;51.234;6.804;2022-12-18T06:35:12;102272.38;;;21.29;31.29
10712;BME280;5407;51.234;6.804;2022-12-18T06:37:39;102262.97;;;21.30;31.29
10712;BME280;5407;51.234;6.804;2022-12-18T06:40:07;102257.47;;;21.30;31.53
10712;BME280;5407;51.234;6.804;2022-12-18T06:42:34;102258.28;;;21.30;31.61
10712;BME280;5407;51.234;6.804;2022-12-18T06:45:01;102254.38;;;21.31;31.48
10712;BME280;5407;51.234;6.804;2022-12-18T06:47:29;102255.94;;;21.32;31.62
10712;BME280;5407;51.234;6.804;2022-12-18T06:49:56;102255.94;;;21.32;31.62
10712;BME280;5407;51.234;6.804;2022-12-18T06:52:22;102241.41;;;21.32;31.65
10712;BME280;5407;51.234;6.804;2022-12-18T06:54:49;102243.81;;;21.33;31.66
10712;BME280;5407;51.234;6.804;2022-12-18T06:57:16;102239.53;;;21.39;31.48
10712;BME280;5407;51.234;6.804;2022-12-18T06:59:43;102237.63;;;21.43;31.49
10712;BME280;5407;51.234;6.804;2022-12-18T07:02:11;102230.97;;;21.44;31.33
10712;BME280;5407;51.234;6.804;2022-12-18T07:04:40;102231.75;;;21.45;31.43
10712;BME280;5407;51.234;6.804;2022-12-18T07:07:07;102232.53;;;21.45;31.67
10712;BME280;5407;51.234;6.804;2022-12-18T07:09:34;102238.03;;;21.45;31.73
10712;BME280;5407;51.234;6.804;2022-12-18T07:12:01;102227.09;;;21.49;31.95
10712;BME280;5407;51.234;6.804;2022-12-18T07:14:30;102226.78;;;21.57;31.83
10712;BME280;5407;51.234;6.804;2022-12-18T07:16:57;102233.56;;;21.63;31.91
10712;BME280;5407;51.234;6.804;2022-12-18T07:19:24;102237.53;;;21.69;31.67
10712;BME280;5407;51.234;6.804;2022-12-18T07:21:52;102238.34;;;21.73;31.67
10712;BME280;5407;51.234;6.804;2022-12-18T07:24:19;102240.28;;;21.69;31.57
10712;BME280;5407;51.234;6.804;2022-12-18T07:26:46;102240.63;;;21.64;31.54
10712;BME280;5407;51.234;6.804;2022-12-18T07:29:13;102243.03;;;21.69;31.67
10712;BME280;5407;51.234;6.804;2022-12-18T07:31:40;102237.53;;;21.69;31.49
10712;BME280;5407;51.234;6.804;2022-12-18T07:34:10;102224.16;;;21.64;31.42
10712;BME280;5407;51.234;6.804;2022-12-18T07:36:37;102223.66;;;21.59;31.61
10712;BME280;5407;51.234;6.804;2022-12-18T07:39:05;102216.19;;;21.56;31.53
10712;BME280;5407;51.234;6.804;2022-12-18T07:41:32;102223.59;;;21.55;31.54
10712;BME280;5407;51.234;6.804;2022-12-18T07:44:09;102224.78;;;21.54;31.36
10712;BME280;5407;51.234;6.804;2022-12-18T07:46:36;102221.63;;;21.52;31.51
10712;BME280;5407;51.234;6.804;2022-12-18T07:49:03;102231.03;;;21.51;31.55
10712;BME280;5407;51.234;6.804;2022-12-18T07:51:29;102220.84;;;21.52;31.57
10712;BME280;5407;51.234;6.804;2022-12-18T07:53:56;102229.44;;;21.50;31.47
10712;BME280;5407;51.234;6.804;2022-12-18T07:56:25;102221.59;;;21.49;31.34
10712;BME280;5407;51.234;6.804;2022-12-18T07:58:51;102225.13;;;21.49;31.21
10712;BME280;5407;51.234;6.804;2022-12-18T08:01:18;102230.22;;;21.47;31.23
10712;BME280;5407;51.234;6.804;2022-12-18T08:03:45;102221.56;;;21.45;31.17
10712;BME280;5407;51.234;6.804;2022-12-18T08:06:12;102201.16;;;21.46;31.47
10712;BME280;5407;51.234;6.804;2022-12-18T08:08:39;102195.69;;;21.46;31.06
10712;BME280;5407;51.234;6.804;2022-12-18T08:11:07;102196.84;;;21.45;31.33
10712;BME280;5407;51.234;6.804;2022-12-18T08:13:35;102203.91;;;21.46;31.20
10712;BME280;5407;51.234;6.804;2022-12-18T08:16:04;102186.66;;;21.46;31.02
10712;BME280;5407;51.234;6.804;2022-12-18T08:18:32;102190.19;;;21.46;31.17
10712;BME280;5407;51.234;6.804;2022-12-18T08:21:08;102184.69;;;21.46;30.99
10712;BME280;5407;51.234;6.804;2022-12-18T08:23:36;102180.00;;;21.47;31.05
10712;BME280;5407;51.234;6.804;2022-12-18T08:26:02;102172.53;;;21.47;31.04
10712;BME280;5407;51.234;6.804;2022-12-18T08:28:29;102169.03;;;21.47;30.95
10712;BME280;5407;51.234;6.804;2022-12-18T08:30:58;102157.63;;;21.48;30.89
10712;BME280;5407;51.234;6.804;2022-12-18T08:33:25;102154.88;;;21.48;30.86
10712;BME280;5407;51.234;6.804;2022-12-18T08:35:52;102154.88;;;21.48;30.99
10712;BME280;5407;51.234;6.804;2022-12-18T08:38:19;102159.63;;;21.48;30.81
10712;BME280;5407;51.234;6.804;2022-12-18T08:40:46;102161.97;;;21.49;30.82
10712;BME280;5407;51.234;6.804;2022-12-18T08:43:13;102161.97;;;21.49;30.66
10712;BME280;5407;51.234;6.804;2022-12-18T08:45:59;102159.63;;;21.48;30.68
10712;BME280;5407;51.234;6.804;2022-12-18T08:48:25;102156.47;;;21.49;30.77
10712;BME280;5407;51.234;6.804;2022-12-18T08:50:56;102165.88;;;21.48;30.83
10712;BME280;5407;51.234;6.804;2022-12-18T08:53:23;102166.69;;;21.49;30.62
10712;BME280;5407;51.234;6.804;2022-12-18T08:55:50;102170.59;;;21.48;30.62
10712;BME280;5407;51.234;6.804;2022-12-18T08:58:17;102167.44;;;21.49;30.72
10712;BME280;5407;51.234;6.804;2022-12-18T09:00:44;102162.78;;;21.50;30.65
10712;BME280;5407;51.234;6.804;2022-12-18T09:03:13;102158.84;;;21.51;30.58
10712;BME280;5407;51.234;6.804;2022-12-18T09:05:40;102170.59;;;21.51;30.59
10712;BME280;5407;51.234;6.804;2022-12-18T09:08:07;102160.78;;;21.50;30.68
10712;BME280;5407;51.234;6.804;2022-12-18T09:10:40;102150.22;;;21.52;30.45
10712;BME280;5407;51.234;6.804;2022-12-18T09:13:07;102144.38;;;21.54;30.60
10712;BME280;5407;51.234;6.804;2022-12-18T09:15:34;102146.72;;;21.55;30.70
10712;BME280;5407;51.234;6.804;2022-12-18T09:18:01;102151.03;;;21.56;30.63
10712;BME280;5407;51.234;6.804;2022-12-18T09:20:29;102141.66;;;21.57;30.51
10712;BME280;5407;51.234;6.804;2022-12-18T09:22:56;102145.53;;;21.56;30.46
10712;BME280;5407;51.234;6.804;2022-12-18T09:25:23;102146.38;;;21.60;30.54
10712;BME280;5407;51.234;6.804;2022-12-18T09:27:50;102157.38;;;21.60;30.60
10712;BME280;5407;51.234;6.804;2022-12-18T09:30:16;102146.81;;;21.62;30.59
10712;BME280;5407;51.234;6.804;2022-12-18T09:32:43;102148.41;;;21.63;30.43
10712;BME280;5407;51.234;6.804;2022-12-18T09:35:10;102150.34;;;21.63;30.35
10712;BME280;5407;51.234;6.804;2022-12-18T09:37:38;102140.16;;;21.63;30.41
10712;BME280;5407;51.234;6.804;2022-12-18T09:40:12;102138.59;;;21.62;30.45
10712;BME280;5407;51.234;6.804;2022-12-18T09:42:40;102135.41;;;21.60;30.36
10712;BME280;5407;51.234;6.804;2022-12-18T09:45:13;102119.69;;;21.57;30.44
10712;BME280;5407;51.234;6.804;2022-12-18T09:47:42;102118.88;;;21.57;30.55
10712;BME280;5407;51.234;6.804;2022-12-18T09:50:19;102116.50;;;21.55;30.52
10712;BME280;5407;51.234;6.804;2022-12-18T09:52:53;102125.91;;;21.54;30.52
10712;BME280;5407;51.234;6.804;2022-12-18T09:55:24;102132.22;;;21.55;30.55
10712;BME280;5407;51.234;6.804;2022-12-18T09:57:56;102132.22;;;21.55;30.58
10712;BME280;5407;51.234;6.804;2022-12-18T10:00:25;102123.16;;;21.54;30.52
10712;BME280;5407;51.234;6.804;2022-12-18T10:02:53;102117.31;;;21.56;30.72
10712;BME280;5407;51.234;6.804;2022-12-18T10:05:30;102116.13;;;21.57;30.64
10712;BME280;5407;51.234;6.804;2022-12-18T10:08:05;102109.47;;;21.58;30.55
10712;BME280;5407;51.234;6.804;2022-12-18T10:10:38;102104.78;;;21.58;30.46
10712;BME280;5407;51.234;6.804;2022-12-18T10:13:14;102102.44;;;21.60;30.24
10712;BME280;5407;51.234;6.804;2022-12-18T10:15:51;102102.44;;;21.60;30.22
10712;BME280;5407;51.234;6.804;2022-12-18T10:18:28;102093.06;;;21.61;30.20
10712;BME280;5407;51.234;6.804;2022-12-18T10:21:02;102090.31;;;21.61;30.35
10712;BME280;5407;51.234;6.804;2022-12-18T10:23:36;102092.25;;;21.61;30.20
10712;BME280;5407;51.234;6.804;2022-12-18T10:26:06;102093.06;;;21.61;30.41
10712;BME280;5407;51.234;6.804;2022-12-18T10:28:36;102086.75;;;21.61;30.40
10712;BME280;5407;51.234;6.804;2022-12-18T10:31:05;102083.22;;;21.60;30.26
10712;BME280;5407;51.234;6.804;2022-12-18T10:33:33;102073.41;;;21.59;30.38
10712;BME280;5407;51.234;6.804;2022-12-18T10:36:00;102068.69;;;21.60;30.36
10712;BME280;5407;51.234;6.804;2022-12-18T10:38:29;102074.16;;;21.60;30.44
10712;BME280;5407;51.234;6.804;2022-12-18T10:41:00;102069.09;;;21.58;30.34
10712;BME280;5407;51.234;6.804;2022-12-18T10:43:29;102073.00;;;21.57;30.36
10712;BME280;5407;51.234;6.804;2022-12-18T10:46:03;102071.03;;;21.58;30.50
10712;BME280;5407;51.234;6.804;2022-12-18T10:48:31;102072.59;;;21.59;30.49
10712;BME280;5407;51.234;6.804;2022-12-18T10:51:00;102065.94;;;21.60;30.37
10712;BME280;5407;51.234;6.804;2022-12-18T10:53:28;102065.16;;;21.59;30.39
10712;BME280;5407;51.234;6.804;2022-12-18T10:55:59;102058.88;;;21.59;30.53
10712;BME280;5407;51.234;6.804;2022-12-18T10:58:29;102045.13;;;21.59;30.53
10712;BME280;5407;51.234;6.804;2022-12-18T11:01:17;102043.19;;;21.59;30.62
10712;BME280;5407;51.234;6.804;2022-12-18T11:03:46;102033.38;;;21.58;30.37
10712;BME280;5407;51.234;6.804;2022-12-18T11:06:25;102038.88;;;21.58;30.43
10712;BME280;5407;51.234;6.804;2022-12-18T11:08:58;102032.56;;;21.58;30.58
10712;BME280;5407;51.234;6.804;2022-12-18T11:11:28;102031.00;;;21.57;30.72
10712;BME280;5407;51.234;6.804;2022-12-18T11:14:01;102037.28;;;21.57;30.59
10712;BME280;5407;51.234;6.804;2022-12-18T11:16:30;102023.16;;;21.59;30.69
10712;BME280;5407;51.234;6.804;2022-12-18T11:19:16;102029.53;;;21.66;31.04
10712;BME280;5407;51.234;6.804;2022-12-18T11:21:46;102029.56;;;21.73;30.97
10712;BME280;5407;51.234;6.804;2022-12-18T11:24:19;102031.13;;;21.78;31.08
10712;BME280;5407;51.234;6.804;2022-12-18T11:26:48;102028.81;;;21.83;31.23
10712;BME280;5407;51.234;6.804;2022-12-18T11:29:17;102014.31;;;21.86;31.07
10712;BME280;5407;51.234;6.804;2022-12-18T11:31:44;102004.13;;;21.90;31.11
10712;BME280;5407;51.234;6.804;2022-12-18T11:34:14;101996.69;;;21.91;30.92
10712;BME280;5407;51.234;6.804;2022-12-18T11:36:45;101995.91;;;21.94;30.87
10712;BME280;5407;51.234;6.804;2022-12-18T11:39:18;101993.56;;;21.96;30.90
10712;BME280;5407;51.234;6.804;2022-12-18T11:41:52;101996.31;;;21.96;30.86
10712;BME280;5407;51.234;6.804;2022-12-18T11:44:42;101995.13;;;21.93;30.91
10712;BME280;5407;51.234;6.804;2022-12-18T11:47:13;101982.91;;;21.87;30.74
10712;BME280;5407;51.234;6.804;2022-12-18T11:49:42;101996.25;;;21.85;30.74
10712;BME280;5407;51.234;6.804;2022-12-18T11:52:17;101986.47;;;21.88;31.59
10712;BME280;5407;51.234;6.804;2022-12-18T11:54:45;101982.16;;;21.90;32.01
10712;BME280;5407;51.234;6.804;2022-12-18T11:57:19;101984.91;;;21.94;32.57
10712;BME280;5407;51.234;6.804;2022-12-18T11:59:56;101988.06;;;21.96;33.17
10712;BME280;5407;51.234;6.804;2022-12-18T12:02:54;101992.00;;;21.98;33.60
10712;BME280;5407;51.234;6.804;2022-12-18T12:05:35;101988.88;;;22.00;33.73
10712;BME280;5407;51.234;6.804;2022-12-18T12:08:13;101971.56;;;21.99;33.22
10712;BME280;5407;51.234;6.804;2022-12-18T12:10:51;101985.31;;;21.99;32.93
10712;BME280;5407;51.234;6.804;2022-12-18T12:13:41;101980.63;;;22.00;32.40
10712;BME280;5407;51.234;6.804;2022-12-18T12:16:16;101981.41;;;22.00;32.12
10712;BME280;5407;51.234;6.804;2022-12-18T12:19:04;101985.72;;;22.01;31.92
10712;BME280;5407;51.234;6.804;2022-12-18T12:21:37;101973.94;;;21.97;31.81
10712;BME280;5407;51.234;6.804;2022-12-18T12:24:17;101967.66;;;21.97;31.83
10712;BME280;5407;51.234;6.804;2022-12-18T12:26:54;101961.38;;;22.00;32.04
10712;BME280;5407;51.234;6.804;2022-12-18T12:29:38;101959.41;;;21.97;32.03
10712;BME280;5407;51.234;6.804;2022-12-18T12:32:19;101964.88;;;21.93;31.89
10712;BME280;5407;51.234;6.804;2022-12-18T12:34:57;101955.06;;;21.92;32.05
10712;BME280;5407;51.234;6.804;2022-12-18T12:37:39;101968.03;;;21.92;31.78
10712;BME280;5407;51.234;6.804;2022-12-18T12:40:13;101955.88;;;21.93;31.42
10712;BME280;5407;51.234;6.804;2022-12-18T12:42:51;101944.88;;;21.96;31.46
10712;BME280;5407;51.234;6.804;2022-12-18T12:45:42;101946.06;;;21.99;31.41
10712;BME280;5407;51.234;6.804;2022-12-18T12:48:17;101929.97;;;21.97;31.37
10712;BME280;5407;51.234;6.804;2022-12-18T12:50:47;101946.44;;;21.97;31.07
10712;BME280;5407;51.234;6.804;2022-12-18T12:53:22;101948.78;;;21.95;31.21
10712;BME280;5407;51.234;6.804;2022-12-18T12:55:50;101951.53;;;21.95;31.18
10712;BME280;5407;51.234;6.804;2022-12-18T12:58:25;101950.38;;;21.96;31.21
10712;BME280;5407;51.234;6.804;2022-12-18T13:01:04;101960.19;;;21.97;31.26
10712;BME280;5407;51.234;6.804;2022-12-18T13:03:41;101952.72;;;21.94;31.28
10712;BME280;5407;51.234;6.804;2022-12-18T13:06:13;101945.28;;;21.95;31.31
10712;BME280;5407;51.234;6.804;2022-12-18T13:08:55;101951.53;;;21.95;31.23
10712;BME280;5407;51.234;6.804;2022-12-18T13:11:35;101942.53;;;21.95;31.17
10712;BME280;5407;51.234;6.804;2022-12-18T13:14:22;101938.22;;;21.94;31.15
10712;BME280;5407;51.234;6.804;2022-12-18T13:16:51;101928.00;;;21.94;31.42
10712;BME280;5407;51.234;6.804;2022-12-18T13:19:23;101934.28;;;21.95;31.31